createdAt,value
2022-08-25T00:00:36.064Z,1.30
2022-08-25T00:01:36.105Z,0.90
2022-08-25T00:02:36.077Z,1.00
2022-08-25T00:03:39.521Z,1.00
2022-08-25T00:04:36.025Z,1.00
2022-08-25T00:05:36.064Z,1.40
2022-08-25T00:06:36.026Z,1.30
2022-08-25T00:07:36.015Z,1.00
2022-08-25T00:08:36.007Z,1.00
2022-08-25T00:09:35.964Z,1.40
2022-08-25T00:10:35.963Z,1.50
2022-08-25T00:11:35.984Z,0.90
2022-08-25T00:12:35.944Z,1.20
2022-08-25T00:13:35.936Z,1.50
2022-08-25T00:14:35.980Z,1.20
2022-08-25T00:15:36.005Z,1.10
2022-08-25T00:16:35.896Z,1.00
2022-08-25T00:17:35.896Z,1.00
2022-08-25T00:18:35.886Z,1.30
2022-08-25T00:19:35.877Z,1.00
2022-08-25T00:20:35.920Z,1.30
2022-08-25T00:21:35.866Z,1.60
2022-08-25T00:22:35.849Z,1.50
2022-08-25T00:23:35.829Z,1.30
2022-08-25T00:24:35.871Z,1.50
2022-08-25T00:25:35.855Z,1.30
2022-08-25T00:26:35.814Z,1.30
2022-08-25T00:27:35.817Z,1.20
2022-08-25T00:28:35.776Z,1.00
2022-08-25T00:29:35.767Z,1.40
2022-08-25T00:30:35.765Z,1.30
2022-08-25T00:31:38.450Z,1.40
2022-08-25T00:32:35.747Z,1.60
2022-08-25T00:33:35.725Z,0.90
2022-08-25T00:34:35.716Z,1.00
2022-08-25T00:35:35.736Z,1.40
2022-08-25T00:36:35.708Z,1.50
2022-08-25T00:37:35.686Z,0.90
2022-08-25T00:38:35.669Z,1.20
2022-08-25T00:39:35.657Z,1.10
2022-08-25T00:40:35.647Z,1.10
2022-08-25T00:41:35.639Z,1.30
2022-08-25T00:42:35.649Z,1.60
2022-08-25T00:43:35.632Z,1.30
2022-08-25T00:44:35.620Z,1.10
2022-08-25T00:45:35.609Z,1.30
2022-08-25T00:46:35.658Z,1.20
2022-08-25T00:47:35.609Z,1.10
2022-08-25T00:48:35.588Z,1.30
2022-08-25T00:49:35.556Z,1.20
2022-08-25T00:50:35.557Z,1.40
2022-08-25T00:51:35.537Z,1.40
2022-08-25T00:52:35.538Z,1.20
2022-08-25T00:53:35.557Z,1.20
2022-08-25T00:54:35.508Z,1.80
2022-08-25T00:55:35.508Z,1.60
2022-08-25T00:56:35.507Z,1.30
2022-08-25T00:57:35.480Z,1.10
2022-08-25T00:58:35.479Z,1.40
2022-08-25T00:59:35.451Z,1.50
2022-08-25T01:00:35.472Z,1.10
2022-08-25T01:01:35.478Z,1.40
2022-08-25T01:02:35.489Z,1.10
2022-08-25T01:03:35.704Z,1.20
2022-08-25T01:04:35.430Z,1.10
2022-08-25T01:05:35.399Z,1.30
2022-08-25T01:06:35.379Z,1.20
2022-08-25T01:07:35.408Z,1.20
2022-08-25T01:08:35.349Z,1.10
2022-08-25T01:09:35.339Z,1.50
2022-08-25T01:10:35.347Z,1.40
2022-08-25T01:11:35.330Z,1.30
2022-08-25T01:12:35.311Z,1.20
2022-08-25T01:13:35.372Z,1.20
2022-08-25T01:14:35.302Z,1.00
2022-08-25T01:15:35.341Z,1.20
2022-08-25T01:16:35.281Z,1.20
2022-08-25T01:17:35.270Z,1.40
2022-08-25T01:18:35.262Z,1.30
2022-08-25T01:19:35.252Z,1.20
2022-08-25T01:20:35.265Z,1.20
2022-08-25T01:21:35.240Z,1.40
2022-08-25T01:22:35.210Z,1.00
2022-08-25T01:23:35.214Z,1.40
2022-08-25T01:24:35.200Z,1.50
2022-08-25T01:25:35.192Z,1.40
2022-08-25T01:26:35.182Z,1.10
2022-08-25T01:27:35.160Z,1.20
2022-08-25T01:28:35.180Z,1.10
2022-08-25T01:29:35.142Z,1.30
2022-08-25T01:30:35.222Z,1.60
2022-08-25T01:31:35.172Z,1.10
2022-08-25T01:32:35.140Z,1.40
2022-08-25T01:33:35.103Z,1.50
2022-08-25T01:34:35.112Z,1.40
2022-08-25T01:35:35.084Z,1.40
2022-08-25T01:36:35.232Z,1.20
2022-08-25T01:37:35.080Z,1.10
2022-08-25T01:38:35.064Z,1.10
2022-08-25T01:39:35.044Z,1.00
2022-08-25T01:40:35.024Z,1.30
2022-08-25T01:41:35.033Z,1.30
2022-08-25T01:42:35.013Z,1.30
2022-08-25T01:43:35.005Z,1.40
2022-08-25T01:44:35.644Z,1.10
2022-08-25T01:45:34.978Z,1.10
2022-08-25T01:46:35.072Z,1.30
2022-08-25T01:47:34.952Z,1.30
2022-08-25T01:48:34.963Z,1.10
2022-08-25T01:49:34.941Z,1.30
2022-08-25T01:50:34.926Z,1.00
2022-08-25T01:51:34.936Z,1.20
2022-08-25T01:52:34.914Z,1.50
2022-08-25T01:53:34.898Z,1.20
2022-08-25T01:54:34.909Z,1.30
2022-08-25T01:55:34.875Z,1.30
2022-08-25T01:56:34.885Z,1.10
2022-08-25T01:57:34.885Z,1.30
2022-08-25T01:58:34.846Z,1.50
2022-08-25T01:59:34.863Z,1.00
2022-08-25T02:00:34.835Z,1.20
2022-08-25T02:01:34.885Z,1.40
2022-08-25T02:02:34.845Z,1.20
2022-08-25T02:03:34.814Z,1.50
2022-08-25T02:04:34.786Z,1.50
2022-08-25T02:05:34.805Z,1.20
2022-08-25T02:06:34.826Z,1.20
2022-08-25T02:07:34.816Z,1.50
2022-08-25T02:08:34.775Z,1.40
2022-08-25T02:09:34.726Z,1.20
2022-08-25T02:10:34.716Z,1.20
2022-08-25T02:11:34.732Z,1.30
2022-08-25T02:12:34.897Z,1.40
2022-08-25T02:13:34.687Z,1.30
2022-08-25T02:14:34.676Z,1.10
2022-08-25T02:15:34.707Z,1.40
2022-08-25T02:16:34.735Z,1.70
2022-08-25T02:17:34.646Z,1.20
2022-08-25T02:18:34.646Z,1.10
2022-08-25T02:19:34.633Z,1.10
2022-08-25T02:20:34.656Z,1.30
2022-08-25T02:21:34.596Z,1.30
2022-08-25T02:22:34.586Z,1.70
2022-08-25T02:23:34.584Z,1.50
2022-08-25T02:24:34.586Z,1.40
2022-08-25T02:25:34.569Z,1.40
2022-08-25T02:26:34.583Z,1.40
2022-08-25T02:27:34.540Z,1.50
2022-08-25T02:28:35.178Z,1.30
2022-08-25T02:29:34.601Z,1.30
2022-08-25T02:30:34.583Z,1.30
2022-08-25T02:31:34.509Z,1.30
2022-08-25T02:32:34.554Z,1.10
2022-08-25T02:33:34.488Z,1.10
2022-08-25T02:34:34.491Z,1.10
2022-08-25T02:35:34.447Z,1.40
2022-08-25T02:36:34.450Z,1.50
2022-08-25T02:37:34.455Z,1.60
2022-08-25T02:38:34.430Z,1.30
2022-08-25T02:39:34.449Z,1.40
2022-08-25T02:40:34.470Z,1.10
2022-08-25T02:41:34.388Z,1.30
2022-08-25T02:42:35.038Z,1.20
2022-08-25T02:43:34.408Z,1.40
2022-08-25T02:44:34.358Z,1.40
2022-08-25T02:45:34.374Z,1.40
2022-08-25T02:46:34.380Z,1.20
2022-08-25T02:47:34.359Z,1.30
2022-08-25T02:48:34.319Z,1.40
2022-08-25T02:49:34.321Z,1.50
2022-08-25T02:50:34.310Z,1.30
2022-08-25T02:51:34.291Z,1.30
2022-08-25T02:52:34.281Z,1.30
2022-08-25T02:53:34.314Z,1.30
2022-08-25T02:54:34.261Z,1.40
2022-08-25T02:55:34.670Z,1.40
2022-08-25T02:56:34.241Z,1.30
2022-08-25T02:57:34.230Z,1.50
2022-08-25T02:58:34.209Z,1.20
2022-08-25T02:59:34.850Z,1.30
2022-08-25T03:00:34.200Z,1.30
2022-08-25T03:01:34.244Z,1.40
2022-08-25T03:02:34.179Z,1.40
2022-08-25T03:03:38.763Z,1.70
2022-08-25T03:04:35.265Z,1.40
2022-08-25T03:05:34.142Z,1.50
2022-08-25T03:07:30.557Z,1.40
2022-08-25T03:08:31.098Z,1.40
2022-08-25T03:09:30.157Z,1.60
2022-08-25T03:10:30.077Z,1.50
2022-08-25T03:11:30.064Z,1.00
2022-08-25T03:12:30.045Z,1.10
2022-08-25T03:13:30.035Z,1.40
2022-08-25T03:14:30.065Z,1.30
2022-08-25T03:15:30.651Z,1.40
2022-08-25T03:16:30.082Z,1.30
2022-08-25T03:17:30.015Z,1.40
2022-08-25T03:18:30.006Z,1.50
2022-08-25T03:19:30.057Z,1.30
2022-08-25T03:20:29.981Z,1.30
2022-08-25T03:21:29.968Z,1.50
2022-08-25T03:22:29.979Z,1.30
2022-08-25T03:23:29.948Z,1.50
2022-08-25T03:24:29.967Z,1.60
2022-08-25T03:25:29.939Z,1.50
2022-08-25T03:26:29.931Z,1.30
2022-08-25T03:27:29.917Z,1.40
2022-08-25T03:28:30.288Z,1.20
2022-08-25T03:29:29.876Z,1.10
2022-08-25T03:30:29.893Z,1.50
2022-08-25T03:31:29.922Z,1.60
2022-08-25T03:32:29.857Z,1.50
2022-08-25T03:33:29.857Z,1.30
2022-08-25T03:34:29.818Z,1.40
2022-08-25T03:35:29.835Z,1.50
2022-08-25T03:36:29.820Z,1.10
2022-08-25T03:37:29.819Z,1.60
2022-08-25T03:38:29.800Z,1.30
2022-08-25T03:39:29.797Z,1.50
2022-08-25T03:40:29.813Z,1.60
2022-08-25T03:41:29.760Z,1.50
2022-08-25T03:42:29.759Z,1.50
2022-08-25T03:43:29.739Z,1.40
2022-08-25T03:44:29.738Z,1.70
2022-08-25T03:45:29.743Z,1.40
2022-08-25T03:46:29.708Z,1.30
2022-08-25T03:47:29.720Z,1.40
2022-08-25T03:48:29.689Z,1.30
2022-08-25T03:49:29.668Z,1.20
2022-08-25T03:50:29.658Z,1.30
2022-08-25T03:51:30.625Z,1.50
2022-08-25T03:52:29.650Z,1.60
2022-08-25T03:53:30.641Z,1.60
2022-08-25T03:54:29.633Z,1.30
2022-08-25T03:55:29.652Z,1.30
2022-08-25T03:56:29.631Z,1.80
2022-08-25T03:57:29.620Z,1.20
2022-08-25T03:58:29.687Z,1.90
2022-08-25T03:59:29.634Z,1.30
2022-08-25T04:00:29.570Z,1.30
2022-08-25T04:01:29.639Z,1.30
2022-08-25T04:02:29.559Z,1.40
2022-08-25T04:03:29.561Z,1.30
2022-08-25T04:04:29.490Z,1.30
2022-08-25T04:05:29.480Z,0.90
2022-08-25T04:06:29.510Z,1.40
2022-08-25T04:07:29.615Z,1.60
2022-08-25T04:08:29.483Z,1.30
2022-08-25T04:09:30.829Z,1.50
2022-08-25T04:10:29.632Z,1.30
2022-08-25T04:11:29.462Z,1.40
2022-08-25T04:12:29.463Z,1.40
2022-08-25T04:13:29.433Z,1.50
2022-08-25T04:14:29.384Z,1.20
2022-08-25T04:15:30.126Z,1.20
2022-08-25T04:16:29.359Z,1.20
2022-08-25T04:17:29.341Z,1.40
2022-08-25T04:18:29.331Z,1.30
2022-08-25T04:19:29.323Z,1.70
2022-08-25T04:20:29.323Z,1.30
2022-08-25T04:21:29.343Z,1.30
2022-08-25T04:22:29.296Z,1.30
2022-08-25T04:23:29.292Z,1.30
2022-08-25T04:24:29.263Z,1.50
2022-08-25T04:25:29.252Z,1.20
2022-08-25T04:26:29.251Z,1.70
2022-08-25T04:27:29.242Z,1.50
2022-08-25T04:28:29.261Z,1.50
2022-08-25T04:29:29.212Z,1.20
2022-08-25T04:30:29.204Z,1.50
2022-08-25T04:31:29.298Z,1.60
2022-08-25T04:32:29.184Z,1.20
2022-08-25T04:33:29.184Z,1.40
2022-08-25T04:34:30.662Z,1.10
2022-08-25T04:35:29.155Z,1.50
2022-08-25T04:36:29.165Z,1.30
2022-08-25T04:37:29.166Z,1.60
2022-08-25T04:38:29.127Z,1.50
2022-08-25T04:39:29.135Z,1.50
2022-08-25T04:40:29.411Z,1.70
2022-08-25T04:41:29.733Z,1.30
2022-08-25T04:42:29.179Z,1.40
2022-08-25T04:43:29.073Z,1.20
2022-08-25T04:44:29.066Z,1.30
2022-08-25T04:45:29.091Z,1.20
2022-08-25T04:46:29.033Z,1.20
2022-08-25T04:47:29.060Z,1.20
2022-08-25T04:48:29.035Z,1.30
2022-08-25T04:49:29.020Z,1.80
2022-08-25T04:50:29.037Z,1.30
2022-08-25T04:51:28.996Z,1.50
2022-08-25T04:52:28.978Z,1.00
2022-08-25T04:53:28.967Z,1.30
2022-08-25T04:54:28.977Z,1.80
2022-08-25T04:55:29.948Z,1.30
2022-08-25T04:56:28.935Z,1.50
2022-08-25T04:57:28.944Z,1.50
2022-08-25T04:58:28.904Z,0.90
2022-08-25T04:59:30.213Z,1.40
2022-08-25T05:00:28.937Z,1.70
2022-08-25T05:01:28.979Z,1.60
2022-08-25T05:02:28.966Z,1.50
2022-08-25T05:03:28.896Z,1.30
2022-08-25T05:04:29.147Z,1.50
2022-08-25T05:05:28.859Z,1.50
2022-08-25T05:06:28.840Z,1.30
2022-08-25T05:07:28.838Z,1.50
2022-08-25T05:08:28.837Z,1.40
2022-08-25T05:09:28.848Z,1.30
2022-08-25T05:10:28.810Z,1.70
2022-08-25T05:11:28.786Z,1.80
2022-08-25T05:12:29.027Z,1.30
2022-08-25T05:13:28.795Z,1.50
2022-08-25T05:14:28.774Z,1.30
2022-08-25T05:15:28.776Z,1.60
2022-08-25T05:16:28.769Z,1.50
2022-08-25T05:17:28.727Z,1.40
2022-08-25T05:18:28.717Z,1.50
2022-08-25T05:19:28.729Z,1.60
2022-08-25T05:20:28.699Z,1.40
2022-08-25T05:21:28.709Z,1.60
2022-08-25T05:22:28.727Z,1.50
2022-08-25T05:23:28.667Z,1.50
2022-08-25T05:24:28.667Z,1.40
2022-08-25T05:25:28.649Z,1.20
2022-08-25T05:26:28.688Z,1.50
2022-08-25T05:27:28.642Z,1.40
2022-08-25T05:28:28.619Z,1.30
2022-08-25T05:29:28.641Z,1.60
2022-08-25T05:30:28.640Z,1.30
2022-08-25T05:31:28.665Z,1.40
2022-08-25T05:32:28.621Z,1.60
2022-08-25T05:33:30.632Z,1.50
2022-08-25T05:34:28.562Z,1.60
2022-08-25T05:35:28.557Z,1.40
2022-08-25T05:36:28.539Z,1.40
2022-08-25T05:37:28.519Z,1.20
2022-08-25T05:38:28.526Z,1.50
2022-08-25T05:39:28.539Z,1.30
2022-08-25T05:40:28.533Z,1.30
2022-08-25T05:41:28.499Z,1.20
2022-08-25T05:42:28.481Z,1.10
2022-08-25T05:43:28.472Z,1.20
2022-08-25T05:44:28.461Z,1.20
2022-08-25T05:45:28.499Z,1.30
2022-08-25T05:46:28.451Z,1.40
2022-08-25T05:47:28.432Z,1.20
2022-08-25T05:48:28.412Z,1.70
2022-08-25T05:49:28.432Z,1.70
2022-08-25T05:50:28.412Z,1.40
2022-08-25T05:51:28.380Z,1.90
2022-08-25T05:52:28.370Z,1.40
2022-08-25T05:53:28.380Z,1.30
2022-08-25T05:54:28.350Z,1.00
2022-08-25T05:55:28.341Z,1.50
2022-08-25T05:56:28.332Z,1.40
2022-08-25T05:57:28.332Z,1.50
2022-08-25T05:58:28.331Z,1.40
2022-08-25T05:59:28.335Z,1.20
2022-08-25T06:00:28.330Z,1.40
2022-08-25T06:01:28.415Z,1.50
2022-08-25T06:02:28.283Z,1.50
2022-08-25T06:03:28.348Z,1.80
2022-08-25T06:04:28.263Z,2.80
2022-08-25T06:05:28.264Z,3.60
2022-08-25T06:06:28.236Z,3.60
2022-08-25T06:07:28.222Z,3.90
2022-08-25T06:08:28.203Z,3.90
2022-08-25T06:09:28.262Z,3.50
2022-08-25T06:10:28.212Z,3.90
2022-08-25T06:11:28.192Z,4.00
2022-08-25T06:12:28.235Z,3.50
2022-08-25T06:13:29.000Z,3.80
2022-08-25T06:14:28.173Z,3.70
2022-08-25T06:15:28.152Z,3.80
2022-08-25T06:16:28.163Z,3.80
2022-08-25T06:17:28.146Z,3.30
2022-08-25T06:18:28.111Z,4.00
2022-08-25T06:19:28.109Z,3.80
2022-08-25T06:20:28.170Z,4.40
2022-08-25T06:21:28.095Z,3.60
2022-08-25T06:22:28.077Z,3.60
2022-08-25T06:23:28.063Z,3.70
2022-08-25T06:24:28.121Z,4.10
2022-08-25T06:25:28.057Z,4.10
2022-08-25T06:26:28.032Z,4.00
2022-08-25T06:27:28.046Z,3.90
2022-08-25T06:28:28.056Z,3.30
2022-08-25T06:29:28.046Z,3.60
2022-08-25T06:30:28.954Z,3.70
2022-08-25T06:31:28.039Z,3.80
2022-08-25T06:32:27.995Z,3.50
2022-08-25T06:33:27.986Z,3.70
2022-08-25T06:34:27.964Z,3.60
2022-08-25T06:35:27.945Z,3.70
2022-08-25T06:36:27.925Z,4.00
2022-08-25T06:37:27.925Z,3.30
2022-08-25T06:38:27.918Z,3.60
2022-08-25T06:39:27.907Z,3.90
2022-08-25T06:40:28.015Z,4.00
2022-08-25T06:41:36.477Z,3.50
2022-08-25T06:42:28.929Z,4.10
2022-08-25T06:43:27.869Z,3.50
2022-08-25T06:44:27.885Z,3.90
2022-08-25T06:45:27.838Z,4.20
2022-08-25T06:46:35.598Z,3.70
2022-08-25T06:47:28.816Z,3.80
2022-08-25T06:48:27.816Z,3.50
2022-08-25T06:49:27.798Z,3.60
2022-08-25T06:50:27.786Z,4.40
2022-08-25T06:51:27.796Z,3.60
2022-08-25T06:52:27.915Z,3.80
2022-08-25T06:53:28.737Z,4.10
2022-08-25T06:54:28.709Z,3.50
2022-08-25T06:55:28.409Z,3.70
2022-08-25T06:56:27.769Z,3.80
2022-08-25T06:57:27.728Z,4.10
2022-08-25T06:58:27.711Z,4.20
2022-08-25T06:59:29.530Z,3.90
2022-08-25T07:00:30.334Z,3.70
2022-08-25T07:01:27.768Z,3.50
2022-08-25T07:02:27.761Z,4.10
2022-08-25T07:03:27.648Z,3.50
2022-08-25T07:04:27.668Z,3.70
2022-08-25T07:05:42.659Z,3.60
2022-08-25T07:06:28.638Z,3.70
2022-08-25T07:07:27.617Z,4.10
2022-08-25T07:08:28.638Z,3.80
2022-08-25T07:09:27.599Z,4.40
2022-08-25T07:10:27.652Z,4.50
2022-08-25T07:11:27.590Z,4.10
2022-08-25T07:12:27.581Z,4.00
2022-08-25T07:13:27.591Z,4.10
2022-08-25T07:14:27.560Z,4.10
2022-08-25T07:15:27.541Z,3.80
2022-08-25T07:16:29.847Z,4.10
2022-08-25T07:17:27.521Z,4.30
2022-08-25T07:18:27.519Z,3.80
2022-08-25T07:19:27.529Z,4.40
2022-08-25T07:20:27.653Z,4.10
2022-08-25T07:21:30.019Z,3.90
2022-08-25T07:22:28.470Z,3.70
2022-08-25T07:23:27.460Z,4.30
2022-08-25T07:24:27.459Z,4.50
2022-08-25T07:25:27.450Z,4.20
2022-08-25T07:26:37.157Z,4.40
2022-08-25T07:27:28.501Z,5.30
2022-08-25T07:28:27.424Z,4.10
2022-08-25T07:29:32.937Z,3.90
2022-08-25T07:30:28.438Z,4.20
2022-08-25T07:31:29.716Z,4.30
2022-08-25T07:32:27.373Z,4.30
2022-08-25T07:33:27.383Z,4.40
2022-08-25T07:34:27.358Z,3.90
2022-08-25T07:35:27.361Z,4.10
2022-08-25T07:36:28.371Z,4.40
2022-08-25T07:37:47.715Z,4.10
2022-08-25T07:38:28.331Z,4.20
2022-08-25T07:39:28.990Z,4.40
2022-08-25T07:40:27.379Z,4.50
2022-08-25T07:41:27.273Z,4.40
2022-08-25T07:42:27.292Z,4.60
2022-08-25T07:43:27.266Z,4.30
2022-08-25T07:44:28.062Z,4.70
2022-08-25T07:45:27.244Z,4.80
2022-08-25T07:46:27.283Z,3.80
2022-08-25T07:47:27.227Z,4.00
2022-08-25T07:48:27.214Z,4.30
2022-08-25T07:49:35.949Z,4.30
2022-08-25T07:50:28.211Z,3.90
2022-08-25T07:52:27.164Z,4.50
2022-08-25T07:53:27.152Z,5.10
2022-08-25T07:54:33.694Z,4.40
2022-08-25T07:55:28.135Z,5.20
2022-08-25T07:56:27.124Z,4.50
2022-08-25T07:57:27.123Z,4.60
2022-08-25T07:58:27.107Z,4.50
2022-08-25T07:59:27.096Z,4.50
2022-08-25T08:00:27.105Z,4.50
2022-08-25T08:01:27.182Z,4.20
2022-08-25T08:02:27.151Z,4.30
2022-08-25T08:03:44.575Z,4.50
2022-08-25T08:04:28.055Z,4.50
2022-08-25T08:05:27.096Z,4.80
2022-08-25T08:06:27.036Z,4.70
2022-08-25T08:08:23.858Z,4.10
2022-08-25T08:09:23.856Z,4.20
2022-08-25T08:11:25.133Z,4.40
2022-08-25T08:12:23.772Z,4.90
2022-08-25T08:13:23.773Z,4.10
2022-08-25T08:14:23.736Z,4.50
2022-08-25T08:15:23.749Z,4.50
2022-08-25T08:16:23.748Z,5.00
2022-08-25T08:17:23.728Z,5.10
2022-08-25T08:18:23.709Z,5.20
2022-08-25T08:19:23.687Z,4.40
2022-08-25T08:20:23.811Z,4.50
2022-08-25T08:21:23.692Z,4.90
2022-08-25T08:22:23.693Z,4.10
2022-08-25T08:23:23.685Z,4.70
2022-08-25T08:24:40.796Z,4.70
2022-08-25T08:25:27.513Z,5.00
2022-08-25T08:26:31.738Z,4.70
2022-08-25T08:27:24.628Z,4.70
2022-08-25T08:28:23.599Z,4.80
2022-08-25T08:29:23.588Z,4.30
2022-08-25T08:30:23.779Z,3.70
2022-08-25T08:31:23.652Z,4.70
2022-08-25T08:32:35.466Z,4.20
2022-08-25T08:33:24.544Z,4.30
2022-08-25T08:34:24.768Z,4.90
2022-08-25T08:35:23.527Z,4.20
2022-08-25T08:36:25.490Z,3.90
2022-08-25T08:37:23.624Z,4.50
2022-08-25T08:38:26.948Z,4.10
2022-08-25T08:39:23.489Z,4.00
2022-08-25T08:40:24.643Z,4.30
2022-08-25T08:41:23.623Z,3.90
2022-08-25T08:42:23.468Z,4.30
2022-08-25T08:43:23.440Z,4.20
2022-08-25T08:44:23.439Z,4.80
2022-08-25T08:45:23.430Z,4.50
2022-08-25T08:46:25.929Z,4.20
2022-08-25T08:47:23.412Z,4.30
2022-08-25T08:48:23.397Z,3.80
2022-08-25T08:49:26.796Z,4.10
2022-08-25T08:50:32.703Z,6.20
2022-08-25T08:51:24.374Z,4.20
2022-08-25T08:52:23.339Z,4.30
2022-08-25T08:53:23.430Z,4.10
2022-08-25T08:54:23.328Z,4.40
2022-08-25T08:55:23.319Z,4.70
2022-08-25T08:56:23.313Z,3.60
2022-08-25T08:57:23.300Z,4.00
2022-08-25T08:58:26.274Z,4.10
2022-08-25T08:59:30.167Z,4.20
2022-08-25T09:00:24.365Z,4.20
2022-08-25T09:01:23.376Z,3.80
2022-08-25T09:02:38.676Z,4.20
2022-08-25T09:03:24.287Z,4.30
2022-08-25T09:04:24.295Z,4.70
2022-08-25T09:05:23.211Z,4.00
2022-08-25T09:06:23.200Z,4.30
2022-08-25T09:07:23.190Z,3.70
2022-08-25T09:08:23.200Z,4.30
2022-08-25T09:09:23.170Z,4.10
2022-08-25T09:10:23.164Z,4.30
2022-08-25T09:11:23.207Z,3.90
2022-08-25T09:12:23.142Z,4.60
2022-08-25T09:13:26.154Z,4.90
2022-08-25T09:14:23.132Z,4.40
2022-08-25T09:15:24.114Z,4.40
2022-08-25T09:16:34.010Z,4.40
2022-08-25T09:17:24.091Z,4.10
2022-08-25T09:18:23.083Z,4.50
2022-08-25T09:19:23.725Z,4.40
2022-08-25T09:20:23.051Z,4.00
2022-08-25T09:21:23.042Z,3.60
2022-08-25T09:22:35.073Z,4.60
2022-08-25T09:23:24.021Z,3.30
2022-08-25T09:24:23.691Z,4.00
2022-08-25T09:25:39.658Z,3.60
2022-08-25T09:26:23.991Z,3.70
2022-08-25T09:27:22.994Z,3.80
2022-08-25T09:28:22.994Z,3.80
2022-08-25T09:29:23.003Z,4.10
2022-08-25T09:30:24.938Z,3.70
2022-08-25T09:31:26.474Z,3.80
2022-08-25T09:32:24.342Z,3.70
2022-08-25T09:33:23.922Z,3.80
2022-08-25T09:34:22.915Z,4.00
2022-08-25T09:35:22.947Z,5.40
2022-08-25T09:36:22.925Z,4.40
2022-08-25T09:37:22.884Z,3.60
2022-08-25T09:38:22.874Z,3.90
2022-08-25T09:39:23.441Z,3.50
2022-08-25T09:40:22.855Z,3.90
2022-08-25T09:41:22.853Z,3.20
2022-08-25T09:42:23.881Z,3.80
2022-08-25T09:43:22.828Z,4.20
2022-08-25T09:44:22.822Z,4.00
2022-08-25T09:45:22.803Z,3.70
2022-08-25T09:46:22.813Z,3.50
2022-08-25T09:47:22.790Z,3.90
2022-08-25T09:48:22.824Z,3.10
2022-08-25T09:49:22.753Z,3.90
2022-08-25T09:50:22.776Z,3.40
2022-08-25T09:51:23.282Z,3.50
2022-08-25T09:52:22.736Z,3.30
2022-08-25T09:53:22.726Z,3.90
2022-08-25T09:54:25.647Z,3.40
2022-08-25T09:55:23.887Z,3.90
2022-08-25T09:56:22.769Z,3.20
2022-08-25T09:57:22.707Z,3.30
2022-08-25T09:58:22.693Z,3.50
2022-08-25T09:59:30.760Z,3.60
2022-08-25T10:00:23.664Z,3.00
2022-08-25T10:01:22.796Z,3.50
2022-08-25T10:02:22.623Z,3.10
2022-08-25T10:03:24.769Z,3.60
2022-08-25T10:04:22.615Z,3.20
2022-08-25T10:05:23.414Z,3.40
2022-08-25T10:06:22.734Z,3.40
2022-08-25T10:07:22.588Z,3.40
2022-08-25T10:08:24.713Z,3.40
2022-08-25T10:09:22.557Z,2.90
2022-08-25T10:10:23.507Z,3.80
2022-08-25T10:11:22.556Z,3.50
2022-08-25T10:12:22.588Z,3.20
2022-08-25T10:13:23.563Z,3.40
2022-08-25T10:14:22.527Z,3.70
2022-08-25T10:15:30.114Z,3.00
2022-08-25T10:16:24.795Z,3.00
2022-08-25T10:17:22.477Z,3.60
2022-08-25T10:18:22.477Z,3.20
2022-08-25T10:19:22.446Z,3.60
2022-08-25T10:20:22.437Z,3.40
2022-08-25T10:21:22.426Z,3.60
2022-08-25T10:22:22.447Z,3.60
2022-08-25T10:23:22.438Z,2.90
2022-08-25T10:24:22.459Z,3.20
2022-08-25T10:25:22.389Z,3.20
2022-08-25T10:26:27.144Z,3.10
2022-08-25T10:27:22.381Z,3.10
2022-08-25T10:28:22.563Z,3.60
2022-08-25T10:29:22.399Z,3.70
2022-08-25T10:30:22.340Z,3.10
2022-08-25T10:31:22.374Z,3.10
2022-08-25T10:32:22.355Z,2.70
2022-08-25T10:33:22.309Z,3.40
2022-08-25T10:34:22.338Z,3.50
2022-08-25T10:35:22.300Z,3.60
2022-08-25T10:36:22.280Z,3.30
2022-08-25T10:37:22.270Z,3.70
2022-08-25T10:38:22.269Z,3.20
2022-08-25T10:39:36.776Z,3.70
2022-08-25T10:40:23.260Z,3.50
2022-08-25T10:41:22.219Z,3.70
2022-08-25T10:42:25.809Z,3.20
2022-08-25T10:43:23.710Z,3.00
2022-08-25T10:44:23.909Z,3.80
2022-08-25T10:45:22.300Z,3.10
2022-08-25T10:46:22.208Z,3.40
2022-08-25T10:47:22.171Z,3.30
2022-08-25T10:48:22.359Z,3.20
2022-08-25T10:49:22.160Z,3.40
2022-08-25T10:50:22.171Z,3.50
2022-08-25T10:51:25.397Z,2.80
2022-08-25T10:52:22.181Z,3.20
2022-08-25T10:53:22.113Z,3.00
2022-08-25T10:54:22.102Z,3.90
2022-08-25T10:55:22.113Z,3.60
2022-08-25T10:56:22.190Z,3.60
2022-08-25T10:57:22.060Z,3.00
2022-08-25T10:58:23.255Z,3.10
2022-08-25T10:59:22.041Z,3.50
2022-08-25T11:00:22.051Z,3.10
2022-08-25T11:01:28.856Z,3.30
2022-08-25T11:02:23.010Z,3.20
2022-08-25T11:03:22.012Z,3.20
2022-08-25T11:04:21.993Z,3.10
2022-08-25T11:05:24.775Z,3.40
2022-08-25T11:06:22.033Z,3.20
2022-08-25T11:07:21.972Z,3.30
2022-08-25T11:08:21.971Z,3.50
2022-08-25T11:09:21.958Z,3.50
2022-08-25T11:10:21.933Z,3.60
2022-08-25T11:11:21.931Z,3.10
2022-08-25T11:12:21.933Z,3.10
2022-08-25T11:13:22.252Z,3.10
2022-08-25T11:14:21.882Z,3.10
2022-08-25T11:15:21.872Z,3.50
2022-08-25T11:16:21.959Z,3.10
2022-08-25T11:17:21.860Z,3.40
2022-08-25T11:18:21.864Z,2.90
2022-08-25T11:19:21.844Z,3.60
2022-08-25T11:20:27.064Z,3.20
2022-08-25T11:21:22.815Z,3.80
2022-08-25T11:22:21.845Z,3.10
2022-08-25T11:23:22.205Z,3.20
2022-08-25T11:24:21.795Z,3.10
2022-08-25T11:25:21.802Z,2.90
2022-08-25T11:26:23.434Z,3.50
2022-08-25T11:27:22.755Z,3.60
2022-08-25T11:28:22.311Z,3.30
2022-08-25T11:29:21.759Z,2.80
2022-08-25T11:30:21.794Z,3.40
2022-08-25T11:31:21.716Z,2.90
2022-08-25T11:32:21.705Z,3.10
2022-08-25T11:33:21.694Z,3.00
2022-08-25T11:34:22.225Z,3.40
2022-08-25T11:35:21.687Z,2.70
2022-08-25T11:36:21.688Z,3.40
2022-08-25T11:37:22.656Z,3.10
2022-08-25T11:38:21.657Z,3.40
2022-08-25T11:39:21.674Z,2.60
2022-08-25T11:40:21.673Z,3.00
2022-08-25T11:41:21.785Z,3.20
2022-08-25T11:42:21.636Z,2.80
2022-08-25T11:43:21.618Z,3.60
2022-08-25T11:44:21.587Z,3.20
2022-08-25T11:45:21.576Z,3.10
2022-08-25T11:46:21.663Z,3.30
2022-08-25T11:47:21.843Z,3.00
2022-08-25T11:48:21.577Z,3.20
2022-08-25T11:49:21.793Z,3.40
2022-08-25T11:50:21.529Z,3.10
2022-08-25T11:51:21.505Z,3.10
2022-08-25T11:52:21.496Z,3.20
2022-08-25T11:53:23.702Z,2.80
2022-08-25T11:54:22.487Z,3.00
2022-08-25T11:55:22.842Z,3.00
2022-08-25T11:56:21.487Z,2.70
2022-08-25T11:57:21.467Z,2.80
2022-08-25T11:58:21.439Z,3.20
2022-08-25T11:59:21.449Z,3.10
2022-08-25T12:00:21.442Z,3.10
2022-08-25T12:01:21.409Z,2.90
2022-08-25T12:02:21.451Z,3.30
2022-08-25T12:03:21.397Z,2.80
2022-08-25T12:04:21.417Z,3.10
2022-08-25T12:05:21.473Z,2.90
2022-08-25T12:06:21.389Z,3.60
2022-08-25T12:07:21.935Z,2.60
2022-08-25T12:08:21.346Z,2.90
2022-08-25T12:09:21.349Z,2.80
2022-08-25T12:10:21.702Z,2.50
2022-08-25T12:11:21.309Z,2.90
2022-08-25T12:12:21.298Z,2.80
2022-08-25T12:13:21.768Z,2.70
2022-08-25T12:14:21.283Z,3.10
2022-08-25T12:15:21.301Z,2.90
2022-08-25T12:16:21.310Z,2.90
2022-08-25T12:17:21.250Z,2.90
2022-08-25T12:18:21.252Z,3.00
2022-08-25T12:19:21.231Z,3.00
2022-08-25T12:20:21.222Z,3.40
2022-08-25T12:21:21.202Z,2.60
2022-08-25T12:22:21.262Z,3.30
2022-08-25T12:23:21.181Z,2.90
2022-08-25T12:24:21.170Z,3.00
2022-08-25T12:25:21.160Z,3.20
2022-08-25T12:26:21.251Z,3.00
2022-08-25T12:27:21.145Z,3.20
2022-08-25T12:28:21.185Z,2.80
2022-08-25T12:29:21.472Z,3.20
2022-08-25T12:30:21.421Z,3.10
2022-08-25T12:31:21.175Z,3.10
2022-08-25T12:32:21.175Z,2.80
2022-08-25T12:33:21.083Z,3.00
2022-08-25T12:34:26.695Z,2.90
2022-08-25T12:35:22.063Z,3.30
2022-08-25T12:36:21.052Z,3.00
2022-08-25T12:37:21.043Z,3.40
2022-08-25T12:38:21.033Z,3.50
2022-08-25T12:39:24.411Z,2.90
2022-08-25T12:40:21.113Z,2.60
2022-08-25T12:41:21.011Z,2.60
2022-08-25T12:42:23.342Z,3.00
2022-08-25T12:43:24.987Z,2.90
2022-08-25T12:44:20.984Z,2.50
2022-08-25T12:45:21.235Z,3.20
2022-08-25T12:46:20.993Z,3.00
2022-08-25T12:47:23.642Z,3.10
2022-08-25T12:48:20.951Z,3.00
2022-08-25T12:49:21.087Z,3.00
2022-08-25T12:50:20.924Z,2.90
2022-08-25T12:51:20.892Z,3.50
2022-08-25T12:52:20.912Z,3.40
2022-08-25T12:53:20.873Z,3.30
2022-08-25T12:54:22.501Z,3.00
2022-08-25T12:55:21.290Z,3.00
2022-08-25T12:56:20.915Z,2.80
2022-08-25T12:57:25.094Z,2.60
2022-08-25T12:58:21.837Z,3.10
2022-08-25T12:59:21.820Z,3.20
2022-08-25T13:00:20.868Z,3.20
2022-08-25T13:01:35.768Z,2.40
2022-08-25T13:02:21.947Z,3.60
2022-08-25T13:03:20.923Z,3.20
2022-08-25T13:04:20.755Z,2.80
2022-08-25T13:05:20.764Z,2.90
2022-08-25T13:06:20.747Z,3.10
2022-08-25T13:07:20.724Z,2.90
2022-08-25T13:09:17.407Z,2.70
2022-08-25T13:10:17.386Z,2.80
2022-08-25T13:11:17.387Z,3.10
2022-08-25T13:12:17.360Z,3.20
2022-08-25T13:13:17.341Z,3.50
2022-08-25T13:14:17.409Z,3.10
2022-08-25T13:15:17.336Z,3.00
2022-08-25T13:16:22.231Z,3.00
2022-08-25T13:17:17.314Z,3.80
2022-08-25T13:18:17.285Z,3.30
2022-08-25T13:19:17.290Z,3.10
2022-08-25T13:20:17.276Z,3.20
2022-08-25T13:21:17.287Z,3.10
2022-08-25T13:22:17.308Z,3.20
2022-08-25T13:23:17.249Z,3.20